createdAt,value
2022-11-28T00:01:45.178Z,14.65
2022-11-28T00:04:13.817Z,8.73
2022-11-28T00:06:50.949Z,12.30
2022-11-28T00:09:20.545Z,10.75
2022-11-28T00:11:49.878Z,8.23
2022-11-28T00:14:18.974Z,10.15
2022-11-28T00:16:47.913Z,11.43
2022-11-28T00:19:15.941Z,9.27
2022-11-28T00:21:43.820Z,14.82
2022-11-28T00:24:11.698Z,9.80
2022-11-28T00:26:41.392Z,10.18
2022-11-28T00:29:10.402Z,9.77
2022-11-28T00:31:42.663Z,9.35
2022-11-28T00:34:13.515Z,10.15
2022-11-28T00:36:43.287Z,11.27
2022-11-28T00:39:11.667Z,11.48
2022-11-28T00:41:39.633Z,12.07
2022-11-28T00:44:07.720Z,9.43
2022-11-28T00:46:35.668Z,11.45
2022-11-28T00:49:03.569Z,12.63
2022-11-28T00:51:33.120Z,9.52
2022-11-28T00:54:02.730Z,12.00
2022-11-28T00:56:34.878Z,11.13
2022-11-28T00:59:03.113Z,9.27
2022-11-28T01:01:43.885Z,11.10
2022-11-28T01:04:15.538Z,8.93
2022-11-28T01:06:46.191Z,9.38
2022-11-28T01:09:20.367Z,10.82
2022-11-28T01:11:50.832Z,9.63
2022-11-28T01:14:23.933Z,8.95
2022-11-28T01:16:51.876Z,11.15
2022-11-28T01:19:21.330Z,10.23
2022-11-28T01:21:49.460Z,11.98
2022-11-28T01:24:17.447Z,11.50
2022-11-28T01:26:45.284Z,10.65
2022-11-28T01:29:13.291Z,10.63
2022-11-28T01:31:41.281Z,10.60
2022-11-28T01:34:09.690Z,10.77
2022-11-28T01:36:37.551Z,10.23
2022-11-28T01:39:06.128Z,12.20
2022-11-28T01:41:34.033Z,11.02
2022-11-28T01:44:13.855Z,10.65
2022-11-28T01:46:42.566Z,10.10
2022-11-28T01:49:15.937Z,16.95
2022-11-28T01:51:52.627Z,9.38
2022-11-28T01:54:22.798Z,11.15
2022-11-28T01:57:00.643Z,12.88
2022-11-28T01:59:34.172Z,12.18
2022-11-28T02:02:08.501Z,11.65
2022-11-28T02:04:36.414Z,9.40
2022-11-28T02:07:04.274Z,14.68
2022-11-28T02:09:32.061Z,13.77
2022-11-28T02:12:32.388Z,10.38
2022-11-28T02:15:19.808Z,14.10
2022-11-28T02:18:27.609Z,12.45
2022-11-28T02:21:18.374Z,15.68
2022-11-28T02:24:07.283Z,13.43
2022-11-28T02:26:50.408Z,11.70
2022-11-28T02:29:51.245Z,10.50
2022-11-28T02:33:06.937Z,12.20
2022-11-28T02:35:49.576Z,12.90
2022-11-28T02:38:24.421Z,10.75
2022-11-28T02:41:01.553Z,12.52
2022-11-28T02:43:48.066Z,14.02
2022-11-28T02:46:32.262Z,11.95
2022-11-28T02:49:06.715Z,13.98
2022-11-28T02:51:46.861Z,11.82
2022-11-28T02:54:18.188Z,10.00
2022-11-28T02:56:50.531Z,10.70
2022-11-28T02:59:36.782Z,10.77
2022-11-28T03:02:13.493Z,12.48
2022-11-28T03:05:14.755Z,11.05
2022-11-28T03:08:04.222Z,12.55
2022-11-28T03:10:59.619Z,12.15
2022-11-28T03:13:49.543Z,11.20
2022-11-28T03:16:35.360Z,8.85
2022-11-28T03:19:19.752Z,7.47
2022-11-28T03:22:13.816Z,12.60
2022-11-28T03:24:46.570Z,9.48
2022-11-28T03:27:18.172Z,8.85
2022-11-28T03:30:01.213Z,8.70
2022-11-28T03:32:32.801Z,9.25
2022-11-28T03:35:09.923Z,9.90
2022-11-28T03:37:49.426Z,11.18
2022-11-28T03:40:22.526Z,9.55
2022-11-28T03:43:04.611Z,10.57
2022-11-28T03:45:40.483Z,9.18
2022-11-28T03:48:41.003Z,9.75
2022-11-28T03:51:36.841Z,11.10
2022-11-28T03:54:08.287Z,8.50
2022-11-28T03:56:53.953Z,9.48
2022-11-28T03:59:34.513Z,8.73
2022-11-28T04:02:22.521Z,9.18
2022-11-28T04:04:57.933Z,8.98
2022-11-28T04:07:42.926Z,8.65
2022-11-28T04:10:19.972Z,4.07
2022-11-28T04:13:03.126Z,8.75
2022-11-28T04:15:46.129Z,9.13
2022-11-28T04:18:38.213Z,8.93
2022-11-28T04:21:29.467Z,11.30
2022-11-28T04:24:07.019Z,8.48
2022-11-28T04:26:42.104Z,6.75
2022-11-28T04:29:14.170Z,9.93
2022-11-28T04:31:44.518Z,9.15
2022-11-28T04:34:17.676Z,9.57
2022-11-28T04:36:46.542Z,7.47
2022-11-28T04:39:18.967Z,8.13
2022-11-28T04:41:57.401Z,7.70
2022-11-28T04:44:47.281Z,8.43
2022-11-28T04:47:15.753Z,10.35
2022-11-28T04:49:43.667Z,8.68
2022-11-28T04:52:29.452Z,9.77
2022-11-28T04:55:11.452Z,10.45
2022-11-28T04:57:57.594Z,10.38
2022-11-28T05:00:27.284Z,9.68
2022-11-28T05:02:56.507Z,9.95
2022-11-28T05:05:28.344Z,8.95
2022-11-28T05:07:57.275Z,9.30
2022-11-28T05:10:25.071Z,11.50
2022-11-28T05:12:53.343Z,10.60
2022-11-28T05:15:21.599Z,12.40
2022-11-28T05:17:49.602Z,8.75
2022-11-28T05:20:17.385Z,8.30
2022-11-28T05:22:45.153Z,8.60
2022-11-28T05:25:13.025Z,10.77
2022-11-28T05:27:40.844Z,9.38
2022-11-28T05:30:09.999Z,9.45
2022-11-28T05:32:37.922Z,8.18
2022-11-28T05:35:06.402Z,9.10
2022-11-28T05:37:36.525Z,7.88
2022-11-28T05:40:06.868Z,8.40
2022-11-28T05:42:39.316Z,8.85
2022-11-28T05:45:07.973Z,8.15
2022-11-28T05:47:35.723Z,7.47
2022-11-28T05:50:03.640Z,7.88
2022-11-28T05:52:32.430Z,7.30
2022-11-28T05:55:01.417Z,7.38
2022-11-28T05:57:32.092Z,7.10
2022-11-28T05:59:59.929Z,7.40
2022-11-28T06:02:27.836Z,7.88
2022-11-28T06:04:55.716Z,8.85
2022-11-28T06:07:23.734Z,7.80
2022-11-28T06:09:51.660Z,8.25
2022-11-28T06:12:19.529Z,7.28
2022-11-28T06:14:47.391Z,8.43
2022-11-28T06:17:15.173Z,7.78
2022-11-28T06:19:43.278Z,7.22
2022-11-28T06:22:11.244Z,6.55
2022-11-28T06:24:39.145Z,6.70
2022-11-28T06:27:06.975Z,7.30
2022-11-28T06:29:35.426Z,6.80
2022-11-28T06:32:03.930Z,6.95
2022-11-28T06:34:32.624Z,5.47
2022-11-28T06:37:00.632Z,6.05
2022-11-28T06:39:28.532Z,5.32
2022-11-28T06:41:56.358Z,6.93
2022-11-28T06:44:24.182Z,5.20
2022-11-28T06:46:52.033Z,6.90
2022-11-28T06:49:19.879Z,5.50
2022-11-28T06:51:47.667Z,7.57
2022-11-28T06:54:15.547Z,5.95
2022-11-28T06:56:43.498Z,5.50
2022-11-28T06:59:12.972Z,7.00
2022-11-28T07:01:40.780Z,5.95
2022-11-28T07:04:09.075Z,6.32
2022-11-28T07:06:39.553Z,5.40
2022-11-28T07:09:07.302Z,5.57
2022-11-28T07:11:35.034Z,5.88
2022-11-28T07:14:03.140Z,6.30
2022-11-28T07:16:34.388Z,4.97
2022-11-28T07:19:02.309Z,4.95
2022-11-28T07:21:30.884Z,5.63
2022-11-28T07:23:59.970Z,5.60
2022-11-28T07:26:27.758Z,6.22
2022-11-28T07:28:58.163Z,6.95
2022-11-28T07:31:31.491Z,6.47
2022-11-28T07:34:03.099Z,6.32
2022-11-28T07:36:31.636Z,6.85
2022-11-28T07:39:04.725Z,8.90
2022-11-28T07:41:32.513Z,6.03
2022-11-28T07:44:01.920Z,7.20
2022-11-28T07:46:31.340Z,6.45
2022-11-28T07:48:59.647Z,7.00
2022-11-28T07:51:31.225Z,6.88
2022-11-28T07:54:00.037Z,7.00
2022-11-28T07:56:50.070Z,6.90
2022-11-28T07:59:18.531Z,9.02
2022-11-28T08:01:49.286Z,7.80
2022-11-28T08:04:17.211Z,7.45
2022-11-28T08:06:45.017Z,6.47
2022-11-28T08:09:13.210Z,7.93
2022-11-28T08:11:41.669Z,7.30
2022-11-28T08:14:09.784Z,8.40
2022-11-28T08:16:41.251Z,8.48
2022-11-28T08:19:09.701Z,8.05
2022-11-28T08:21:38.443Z,7.57
2022-11-28T08:24:08.186Z,10.20
2022-11-28T08:26:37.516Z,8.95
2022-11-28T08:29:05.670Z,9.05
2022-11-28T08:31:36.442Z,9.98
2022-11-28T08:34:07.155Z,9.35
2022-11-28T08:36:35.441Z,8.98
2022-11-28T08:41:57.134Z,12.05
2022-11-28T08:44:26.689Z,8.68
2022-11-28T08:46:55.783Z,9.00
2022-11-28T08:49:23.671Z,9.05
2022-11-28T08:51:51.876Z,8.70
2022-11-28T08:54:20.871Z,10.13
2022-11-28T08:56:49.068Z,9.13
2022-11-28T08:59:17.070Z,8.93
2022-11-28T09:01:45.071Z,10.00
2022-11-28T09:04:13.156Z,9.35
2022-11-28T09:06:41.467Z,10.18
2022-11-28T09:09:09.963Z,9.82
2022-11-28T09:11:38.344Z,8.63
2022-11-28T09:14:06.573Z,8.88
2022-11-28T09:16:34.523Z,8.95
2022-11-28T09:19:02.420Z,8.48
2022-11-28T09:21:30.312Z,9.35
2022-11-28T09:23:58.174Z,8.63
2022-11-28T09:26:26.089Z,7.65
2022-11-28T09:28:54.311Z,8.32
2022-11-28T09:31:22.710Z,8.07
2022-11-28T09:33:50.737Z,9.18
2022-11-28T09:36:23.313Z,8.77
2022-11-28T09:38:51.604Z,7.93
2022-11-28T09:41:28.536Z,7.82
2022-11-28T09:44:12.332Z,7.72
2022-11-28T09:46:41.996Z,9.20
2022-11-28T09:49:34.003Z,7.78
2022-11-28T09:52:38.503Z,7.30
2022-11-28T09:55:35.143Z,8.77
2022-11-28T09:58:19.341Z,8.05
2022-11-28T10:01:24.480Z,7.43
2022-11-28T10:04:17.463Z,7.93
2022-11-28T10:06:57.085Z,8.15
2022-11-28T10:09:44.716Z,6.85
2022-11-28T10:12:18.532Z,7.28
2022-11-28T10:15:08.739Z,8.07
2022-11-28T10:17:58.660Z,8.07
2022-11-28T10:20:31.076Z,8.35
2022-11-28T10:23:01.796Z,10.95
2022-11-28T10:25:36.899Z,7.97
2022-11-28T10:28:06.901Z,7.28
2022-11-28T10:30:41.051Z,8.40
2022-11-28T10:33:24.836Z,6.68
2022-11-28T10:36:00.547Z,7.65
2022-11-28T10:38:29.970Z,6.32
2022-11-28T10:41:31.067Z,6.57
2022-11-28T10:44:21.609Z,6.38
2022-11-28T10:47:19.758Z,7.13
2022-11-28T10:50:00.502Z,5.80
2022-11-28T10:52:44.127Z,6.60
2022-11-28T10:55:41.730Z,6.88
2022-11-28T10:58:27.533Z,5.50
2022-11-28T11:01:00.408Z,6.47
2022-11-28T11:03:32.683Z,6.82
2022-11-28T11:06:01.072Z,6.78
2022-11-28T11:08:34.819Z,7.47
2022-11-28T11:11:24.323Z,6.53
2022-11-28T11:14:08.050Z,7.40
2022-11-28T11:16:54.401Z,7.30
2022-11-28T11:19:26.894Z,7.53
2022-11-28T11:22:24.782Z,7.68
2022-11-28T11:25:20.199Z,8.35
2022-11-28T11:27:51.247Z,8.00
2022-11-28T11:30:40.163Z,10.35
2022-11-28T11:33:15.272Z,10.27
2022-11-28T11:35:47.609Z,9.95
2022-11-28T11:38:21.365Z,10.15
2022-11-28T11:40:50.687Z,11.32
2022-11-28T11:43:33.434Z,10.20
2022-11-28T11:46:13.004Z,9.90
2022-11-28T11:48:46.510Z,10.48
2022-11-28T11:51:27.594Z,11.35
2022-11-28T11:54:14.496Z,13.27
2022-11-28T11:56:46.650Z,11.48
2022-11-28T11:59:33.994Z,13.15
2022-11-28T12:02:08.588Z,13.80
2022-11-28T12:04:53.922Z,13.00
2022-11-28T12:07:47.218Z,12.02
2022-11-28T12:10:20.585Z,16.73
2022-11-28T12:12:48.419Z,16.30
2022-11-28T12:15:21.596Z,15.35
2022-11-28T12:18:15.383Z,16.88
2022-11-28T12:20:47.445Z,15.75
2022-11-28T12:23:41.398Z,16.98
2022-11-28T12:26:09.158Z,20.67
2022-11-28T12:29:13.117Z,16.73
2022-11-28T12:32:03.439Z,18.45
2022-11-28T12:34:49.769Z,17.70
2022-11-28T12:38:09.779Z,17.50
2022-11-28T12:41:15.251Z,19.85
2022-11-28T12:44:00.305Z,18.95
2022-11-28T12:46:57.057Z,20.10
2022-11-28T12:49:54.109Z,22.25
2022-11-28T12:52:40.847Z,23.42
2022-11-28T12:55:33.669Z,19.42
2022-11-28T12:58:21.823Z,18.27
2022-11-28T13:01:17.774Z,20.25
2022-11-28T13:03:56.133Z,18.48
2022-11-28T13:06:42.633Z,21.08
2022-11-28T13:09:57.789Z,19.98
2022-11-28T13:12:34.581Z,17.60
2022-11-28T13:15:16.291Z,21.50
2022-11-28T13:18:22.965Z,20.52
2022-11-28T13:21:07.103Z,21.33
2022-11-28T13:24:02.255Z,19.88
2022-11-28T13:27:05.556Z,21.65
2022-11-28T13:30:05.518Z,23.83
2022-11-28T13:32:45.680Z,20.67
2022-11-28T13:35:16.462Z,23.60
2022-11-28T13:41:28.742Z,20.60
2022-11-28T13:44:08.586Z,21.77
2022-11-28T13:46:36.536Z,18.55
2022-11-28T13:49:27.469Z,19.10
2022-11-28T13:52:17.240Z,20.35
2022-11-28T13:54:52.725Z,20.90
2022-11-28T13:57:29.682Z,20.45
2022-11-28T14:00:01.757Z,20.08
2022-11-28T14:02:47.549Z,18.85
2022-11-28T14:05:35.678Z,18.42
2022-11-28T14:08:04.871Z,20.20
2022-11-28T14:10:49.557Z,18.73
2022-11-28T14:13:39.122Z,19.60
2022-11-28T14:16:18.707Z,21.67
2022-11-28T14:19:16.774Z,18.00
2022-11-28T14:21:53.265Z,20.83
2022-11-28T14:24:39.024Z,18.48
2022-11-28T14:27:14.495Z,19.08
2022-11-28T14:29:47.195Z,19.45
2022-11-28T14:32:42.591Z,19.85
2022-11-28T14:35:49.918Z,18.63
2022-11-28T14:38:31.362Z,20.17
2022-11-28T14:41:04.587Z,18.58
2022-11-28T14:43:44.617Z,19.27
2022-11-28T14:46:24.271Z,21.35
2022-11-28T14:49:00.380Z,18.52
2022-11-28T14:51:49.577Z,19.05
2022-11-28T14:54:26.803Z,18.15
2022-11-28T14:56:59.784Z,21.15
2022-11-28T14:59:37.392Z,19.88
2022-11-28T15:02:25.733Z,20.55
2022-11-28T15:05:10.290Z,21.02
2022-11-28T15:07:38.802Z,19.33
2022-11-28T15:10:16.667Z,22.38
2022-11-28T15:13:19.119Z,23.65
2022-11-28T15:15:51.599Z,23.63
2022-11-28T15:18:21.285Z,25.67
2022-11-28T15:20:58.723Z,25.65
2022-11-28T15:23:31.740Z,26.35
2022-11-28T15:26:01.208Z,28.02
2022-11-28T15:28:32.484Z,28.77
2022-11-28T15:31:03.957Z,29.45
2022-11-28T15:33:33.705Z,27.85
2022-11-28T15:36:10.579Z,32.67
2022-11-28T15:38:41.389Z,30.45
2022-11-28T15:41:09.836Z,34.03
2022-11-28T15:43:42.244Z,30.67
2022-11-28T15:46:20.609Z,33.20
2022-11-28T15:48:50.697Z,33.70
2022-11-28T15:51:35.649Z,37.20
2022-11-28T15:54:24.086Z,32.95
2022-11-28T15:56:59.668Z,33.67
2022-11-28T15:59:29.085Z,35.80
2022-11-28T16:02:04.469Z,34.22
2022-11-28T16:04:32.735Z,35.53
2022-11-28T16:07:02.034Z,36.97
2022-11-28T16:09:35.354Z,36.08
2022-11-28T16:12:04.903Z,36.90
2022-11-28T16:14:36.308Z,39.33
2022-11-28T16:17:10.014Z,37.38
2022-11-28T16:19:38.830Z,39.83
2022-11-28T16:22:09.911Z,36.05
2022-11-28T16:24:47.757Z,38.17
2022-11-28T16:27:37.790Z,38.90
2022-11-28T16:30:24.153Z,37.35
2022-11-28T16:32:53.955Z,42.22
2022-11-28T16:35:40.676Z,42.65
2022-11-28T16:38:23.968Z,40.80
2022-11-28T16:41:02.119Z,41.22
2022-11-28T16:43:40.844Z,45.40
2022-11-28T16:46:20.251Z,50.83
2022-11-28T16:48:53.602Z,49.47
2022-11-28T16:51:23.966Z,48.67
2022-11-28T16:53:58.893Z,44.72
2022-11-28T16:56:34.537Z,42.08
2022-11-28T16:59:18.625Z,49.35
2022-11-28T17:01:53.950Z,46.80
2022-11-28T17:04:30.802Z,46.20
2022-11-28T17:07:05.849Z,48.05
2022-11-28T17:09:34.223Z,49.78
2022-11-28T17:12:11.706Z,47.38
2022-11-28T17:14:40.269Z,53.70
2022-11-28T17:17:14.724Z,47.42
2022-11-28T17:19:44.185Z,49.65
2022-11-28T17:22:18.431Z,57.30
2022-11-28T17:24:47.840Z,53.50
2022-11-28T17:27:16.288Z,53.45
2022-11-28T17:29:44.505Z,61.60
2022-11-28T17:32:14.551Z,52.42
2022-11-28T17:34:48.590Z,54.53
2022-11-28T17:37:16.665Z,60.10
2022-11-28T17:40:04.560Z,49.85
2022-11-28T17:42:32.905Z,56.75
2022-11-28T17:45:00.685Z,53.20
2022-11-28T17:47:28.586Z,52.38
2022-11-28T17:49:56.613Z,53.00
2022-11-28T17:52:30.217Z,52.42
2022-11-28T17:55:06.868Z,53.50
2022-11-28T17:57:36.338Z,54.42
2022-11-28T18:00:06.904Z,51.35
2022-11-28T18:02:42.054Z,51.33
2022-11-28T18:05:10.751Z,53.88
2022-11-28T18:07:40.239Z,53.60
2022-11-28T18:10:12.678Z,57.80
2022-11-28T18:12:40.756Z,58.60
2022-11-28T18:15:10.551Z,51.75
2022-11-28T18:17:39.544Z,59.28
2022-11-28T18:20:08.644Z,62.38
2022-11-28T18:22:36.937Z,63.63
2022-11-28T18:25:05.824Z,58.60
2022-11-28T18:27:34.299Z,54.85
2022-11-28T18:30:02.241Z,59.95
2022-11-28T18:32:30.694Z,63.38
2022-11-28T18:34:58.562Z,66.85
2022-11-28T18:37:28.786Z,61.42
2022-11-28T18:39:56.831Z,61.17
2022-11-28T18:42:24.697Z,58.72
2022-11-28T18:44:52.700Z,65.63
2022-11-28T18:47:20.555Z,68.45
2022-11-28T18:49:48.980Z,65.03
2022-11-28T18:52:17.395Z,68.10
2022-11-28T18:54:46.027Z,75.68
2022-11-28T18:57:14.516Z,63.33
2022-11-28T18:59:49.766Z,62.28
2022-11-28T19:02:21.148Z,64.43
2022-11-28T19:04:49.190Z,64.82
2022-11-28T19:07:17.356Z,61.05
2022-11-28T19:09:45.495Z,65.18
2022-11-28T19:12:14.301Z,61.58
2022-11-28T19:14:42.320Z,65.75
2022-11-28T19:17:12.161Z,66.55
2022-11-28T19:19:41.248Z,66.07
2022-11-28T19:22:09.560Z,61.33
2022-11-28T19:24:38.353Z,68.70
2022-11-28T19:27:10.953Z,71.68
2022-11-28T19:29:44.232Z,65.65
2022-11-28T19:32:12.688Z,64.47
2022-11-28T19:34:40.507Z,73.70
2022-11-28T19:37:08.558Z,77.47
2022-11-28T19:39:37.124Z,74.95
2022-11-28T19:42:05.497Z,82.75
2022-11-28T19:44:33.487Z,73.45
2022-11-28T19:47:02.205Z,77.60
2022-11-28T19:49:30.355Z,76.50
2022-11-28T19:51:58.436Z,67.38
2022-11-28T19:54:27.122Z,125.60
2022-11-28T19:56:56.771Z,97.63
2022-11-28T19:59:25.072Z,84.20
2022-11-28T20:01:53.876Z,101.43
2022-11-28T20:04:23.454Z,116.40
2022-11-28T20:06:51.599Z,135.07
2022-11-28T20:09:19.537Z,108.90
2022-11-28T20:11:48.570Z,110.90
2022-11-28T20:14:18.709Z,116.10
2022-11-28T20:16:47.235Z,95.50
2022-11-28T20:19:17.912Z,94.40
2022-11-28T20:21:46.624Z,89.75
2022-11-28T20:24:15.694Z,78.25
2022-11-28T20:26:45.149Z,72.93
2022-11-28T20:29:15.989Z,72.55
2022-11-28T20:31:45.843Z,74.43
2022-11-28T20:34:17.733Z,76.18
2022-11-28T20:36:50.242Z,79.57
2022-11-28T20:39:18.559Z,90.82
2022-11-28T20:41:46.534Z,105.30
2022-11-28T20:44:21.734Z,92.80
2022-11-28T20:46:49.961Z,91.30
2022-11-28T20:49:18.679Z,96.60
2022-11-28T20:51:52.682Z,102.82
2022-11-28T20:54:20.820Z,101.63
2022-11-28T20:59:36.744Z,99.18
2022-11-28T21:02:04.912Z,94.93
2022-11-28T21:04:32.920Z,86.18
2022-11-28T21:07:00.805Z,87.88
2022-11-28T21:09:28.747Z,81.60
2022-11-28T21:11:59.196Z,86.68
2022-11-28T21:14:28.761Z,76.82
2022-11-28T21:16:57.506Z,71.43
2022-11-28T21:19:25.536Z,76.50
2022-11-28T21:21:53.529Z,69.30
2022-11-28T21:24:21.455Z,70.15
2022-11-28T21:26:53.380Z,71.65
2022-11-28T21:29:23.730Z,74.03
2022-11-28T21:31:51.859Z,62.75
2022-11-28T21:34:19.904Z,65.35
2022-11-28T21:36:47.790Z,71.00
2022-11-28T21:39:19.857Z,60.45
2022-11-28T21:41:48.089Z,63.85
2022-11-28T21:44:16.331Z,61.70
2022-11-28T21:46:44.360Z,68.38
2022-11-28T21:49:13.396Z,70.32
2022-11-28T21:51:41.556Z,66.90
2022-11-28T21:54:11.530Z,64.72
2022-11-28T21:56:39.473Z,65.38
2022-11-28T21:59:10.439Z,71.57
2022-11-28T22:01:38.996Z,62.00
2022-11-28T22:04:07.411Z,71.10
2022-11-28T22:06:35.405Z,71.45
2022-11-28T22:09:09.097Z,59.28
2022-11-28T22:11:39.503Z,60.78
2022-11-28T22:14:07.452Z,65.60
2022-11-28T22:16:35.336Z,58.83
2022-11-28T22:19:04.139Z,59.33
2022-11-28T22:24:21.233Z,53.47
2022-11-28T22:26:49.829Z,61.63
2022-11-28T22:29:18.831Z,53.90
2022-11-28T22:31:47.131Z,57.90
2022-11-28T22:34:15.253Z,52.67
2022-11-28T22:36:43.194Z,59.83
2022-11-28T22:39:11.676Z,53.63
2022-11-28T22:41:39.790Z,55.30
2022-11-28T22:44:07.721Z,60.10
2022-11-28T22:46:35.586Z,55.35
2022-11-28T22:49:04.631Z,54.72
2022-11-28T22:51:33.399Z,63.65
2022-11-28T22:54:03.307Z,56.97
2022-11-28T22:56:33.772Z,55.13
2022-11-28T22:59:04.828Z,56.47
2022-11-28T23:01:34.635Z,61.33
2022-11-28T23:04:02.679Z,61.28
2022-11-28T23:06:33.271Z,55.97
2022-11-28T23:09:04.692Z,56.55
2022-11-28T23:11:34.563Z,55.50
2022-11-28T23:14:03.269Z,61.30
2022-11-28T23:16:37.474Z,59.08
2022-11-28T23:19:16.366Z,45.90
2022-11-28T23:21:47.231Z,58.15
2022-11-28T23:24:17.764Z,48.47
2022-11-28T23:26:47.615Z,51.75
2022-11-28T23:29:17.371Z,53.92
2022-11-28T23:31:47.073Z,53.00
2022-11-28T23:34:15.798Z,52.40
2022-11-28T23:36:46.561Z,48.28
2022-11-28T23:39:17.314Z,54.13
2022-11-28T23:41:45.418Z,50.65
2022-11-28T23:44:14.339Z,51.95
2022-11-28T23:46:42.959Z,62.50
2022-11-28T23:49:11.577Z,43.63
2022-11-28T23:51:40.610Z,50.35
2022-11-28T23:54:09.688Z,57.25
2022-11-28T23:56:38.881Z,55.90
2022-11-28T23:59:08.582Z,62.92
